sensor_id;sensor_type;location;lat;lon;timestamp;temperature;humidity
13960;DHT22;7052;51.050;3.716;2023-11-21T00:01:32;9.00;99.90
13960;DHT22;7052;51.050;3.716;2023-11-21T00:04:02;9.00;99.90
13960;DHT22;7052;51.050;3.716;2023-11-21T00:06:29;9.00;99.90
13960;DHT22;7052;51.050;3.716;2023-11-21T00:08:58;9.10;99.90
13960;DHT22;7052;51.050;3.716;2023-11-21T00:11:26;9.10;99.90
13960;DHT22;7052;51.050;3.716;2023-11-21T00:13:54;9.10;99.90
13960;DHT22;7052;51.050;3.716;2023-11-21T00:16:21;9.10;99.90
13960;DHT22;7052;51.050;3.716;2023-11-21T00:18:51;9.20;99.90
13960;DHT22;7052;51.050;3.716;2023-11-21T00:21:20;9.10;99.90
13960;DHT22;7052;51.050;3.716;2023-11-21T00:23:48;9.10;99.90
13960;DHT22;7052;51.050;3.716;2023-11-21T00:26:21;9.20;99.90
13960;DHT22;7052;51.050;3.716;2023-11-21T00:28:57;9.20;99.90
13960;DHT22;7052;51.050;3.716;2023-11-21T00:31:24;9.20;99.90
13960;DHT22;7052;51.050;3.716;2023-11-21T00:33:52;9.20;99.90
13960;DHT22;7052;51.050;3.716;2023-11-21T00:36:22;9.20;99.90
13960;DHT22;7052;51.050;3.716;2023-11-21T00:38:58;9.20;99.90
13960;DHT22;7052;51.050;3.716;2023-11-21T00:41:29;9.20;99.90
13960;DHT22;7052;51.050;3.716;2023-11-21T00:43:57;9.20;99.90
13960;DHT22;7052;51.050;3.716;2023-11-21T00:46:25;9.20;99.90
13960;DHT22;7052;51.050;3.716;2023-11-21T00:48:54;9.20;99.90
13960;DHT22;7052;51.050;3.716;2023-11-21T00:51:34;9.20;99.90
13960;DHT22;7052;51.050;3.716;2023-11-21T00:54:15;9.20;99.90
13960;DHT22;7052;51.050;3.716;2023-11-21T00:56:45;9.20;99.90
13960;DHT22;7052;51.050;3.716;2023-11-21T00:59:15;9.20;99.90
13960;DHT22;7052;51.050;3.716;2023-11-21T01:01:42;9.30;99.90
13960;DHT22;7052;51.050;3.716;2023-11-21T01:04:18;9.30;99.90
13960;DHT22;7052;51.050;3.716;2023-11-21T01:06:46;9.30;99.90
13960;DHT22;7052;51.050;3.716;2023-11-21T01:09:19;9.30;99.90
13960;DHT22;7052;51.050;3.716;2023-11-21T01:11:48;9.30;99.90
13960;DHT22;7052;51.050;3.716;2023-11-21T01:23:37;9.30;99.90
13960;DHT22;7052;51.050;3.716;2023-11-21T01:26:07;9.20;99.90
13960;DHT22;7052;51.050;3.716;2023-11-21T01:28:35;9.30;99.90
13960;DHT22;7052;51.050;3.716;2023-11-21T01:31:02;9.30;99.90
13960;DHT22;7052;51.050;3.716;2023-11-21T01:33:39;9.30;99.90
13960;DHT22;7052;51.050;3.716;2023-11-21T01:36:10;9.30;99.90
13960;DHT22;7052;51.050;3.716;2023-11-21T01:38:41;9.30;99.90
13960;DHT22;7052;51.050;3.716;2023-11-21T01:41:09;9.30;99.90
13960;DHT22;7052;51.050;3.716;2023-11-21T01:43:41;9.40;99.90
13960;DHT22;7052;51.050;3.716;2023-11-21T01:46:24;9.30;99.90
13960;DHT22;7052;51.050;3.716;2023-11-21T01:48:51;9.30;99.90
13960;DHT22;7052;51.050;3.716;2023-11-21T01:51:20;9.30;99.90
13960;DHT22;7052;51.050;3.716;2023-11-21T01:53:51;9.30;99.90
13960;DHT22;7052;51.050;3.716;2023-11-21T01:56:19;9.30;99.90
13960;DHT22;7052;51.050;3.716;2023-11-21T01:58:46;9.30;99.90
13960;DHT22;7052;51.050;3.716;2023-11-21T02:01:22;9.30;99.90
13960;DHT22;7052;51.050;3.716;2023-11-21T02:03:51;9.40;99.90
13960;DHT22;7052;51.050;3.716;2023-11-21T02:06:19;9.30;99.90
13960;DHT22;7052;51.050;3.716;2023-11-21T02:08:53;9.30;99.90
13960;DHT22;7052;51.050;3.716;2023-11-21T02:11:21;9.30;99.90
13960;DHT22;7052;51.050;3.716;2023-11-21T02:13:48;9.30;99.90
13960;DHT22;7052;51.050;3.716;2023-11-21T02:16:15;9.30;99.90
13960;DHT22;7052;51.050;3.716;2023-11-21T02:18:42;9.40;99.90
13960;DHT22;7052;51.050;3.716;2023-11-21T02:21:09;9.40;99.90
13960;DHT22;7052;51.050;3.716;2023-11-21T02:23:38;9.40;99.90
13960;DHT22;7052;51.050;3.716;2023-11-21T02:26:08;9.40;99.90
13960;DHT22;7052;51.050;3.716;2023-11-21T02:28:35;9.40;99.90
13960;DHT22;7052;51.050;3.716;2023-11-21T02:31:04;9.40;99.90
13960;DHT22;7052;51.050;3.716;2023-11-21T02:33:33;9.40;99.90
13960;DHT22;7052;51.050;3.716;2023-11-21T02:36:03;9.40;99.90
13960;DHT22;7052;51.050;3.716;2023-11-21T02:38:34;9.40;99.90
13960;DHT22;7052;51.050;3.716;2023-11-21T02:41:05;9.40;99.90
13960;DHT22;7052;51.050;3.716;2023-11-21T02:43:32;9.40;99.90
13960;DHT22;7052;51.050;3.716;2023-11-21T02:45:59;9.40;99.90
13960;DHT22;7052;51.050;3.716;2023-11-21T02:48:26;9.40;99.90
13960;DHT22;7052;51.050;3.716;2023-11-21T02:50:54;9.40;99.90
13960;DHT22;7052;51.050;3.716;2023-11-21T02:53:21;9.40;99.90
13960;DHT22;7052;51.050;3.716;2023-11-21T02:55:50;9.40;99.90
13960;DHT22;7052;51.050;3.716;2023-11-21T02:58:21;9.40;99.90
13960;DHT22;7052;51.050;3.716;2023-11-21T03:00:51;9.40;99.90
13960;DHT22;7052;51.050;3.716;2023-11-21T03:03:20;9.40;99.90
13960;DHT22;7052;51.050;3.716;2023-11-21T03:05:50;9.40;99.90
13960;DHT22;7052;51.050;3.716;2023-11-21T03:08:17;9.40;99.90
13960;DHT22;7052;51.050;3.716;2023-11-21T03:10:45;9.40;99.90
13960;DHT22;7052;51.050;3.716;2023-11-21T03:13:12;9.40;99.90
13960;DHT22;7052;51.050;3.716;2023-11-21T03:15:46;9.40;99.90
13960;DHT22;7052;51.050;3.716;2023-11-21T03:18:16;9.40;99.90
13960;DHT22;7052;51.050;3.716;2023-11-21T03:20:44;9.40;99.90
13960;DHT22;7052;51.050;3.716;2023-11-21T03:23:12;9.40;99.90
13960;DHT22;7052;51.050;3.716;2023-11-21T03:25:39;9.40;99.90
13960;DHT22;7052;51.050;3.716;2023-11-21T03:28:08;9.40;99.90
13960;DHT22;7052;51.050;3.716;2023-11-21T03:30:38;9.40;99.90
13960;DHT22;7052;51.050;3.716;2023-11-21T03:33:06;9.40;99.90
13960;DHT22;7052;51.050;3.716;2023-11-21T03:35:33;9.40;99.90
13960;DHT22;7052;51.050;3.716;2023-11-21T03:38:00;9.40;99.90
13960;DHT22;7052;51.050;3.716;2023-11-21T03:40:30;9.40;99.90
13960;DHT22;7052;51.050;3.716;2023-11-21T03:42:58;9.40;99.90
13960;DHT22;7052;51.050;3.716;2023-11-21T03:45:27;9.40;99.90
13960;DHT22;7052;51.050;3.716;2023-11-21T03:47:54;9.40;99.90
13960;DHT22;7052;51.050;3.716;2023-11-21T03:50:34;9.50;99.90
13960;DHT22;7052;51.050;3.716;2023-11-21T03:53:02;9.40;99.90
13960;DHT22;7052;51.050;3.716;2023-11-21T03:55:30;9.40;99.90
13960;DHT22;7052;51.050;3.716;2023-11-21T03:57:57;9.40;99.90
13960;DHT22;7052;51.050;3.716;2023-11-21T04:00:25;9.40;99.90
13960;DHT22;7052;51.050;3.716;2023-11-21T04:02:53;9.40;99.90
13960;DHT22;7052;51.050;3.716;2023-11-21T04:05:21;9.40;99.90
13960;DHT22;7052;51.050;3.716;2023-11-21T04:07:50;9.40;99.90
13960;DHT22;7052;51.050;3.716;2023-11-21T04:10:18;9.50;99.90
13960;DHT22;7052;51.050;3.716;2023-11-21T04:12:45;9.50;99.90
13960;DHT22;7052;51.050;3.716;2023-11-21T04:15:12;9.50;99.90
13960;DHT22;7052;51.050;3.716;2023-11-21T04:17:40;9.50;99.90
13960;DHT22;7052;51.050;3.716;2023-11-21T04:20:14;9.50;99.90
13960;DHT22;7052;51.050;3.716;2023-11-21T04:22:43;9.50;99.90
13960;DHT22;7052;51.050;3.716;2023-11-21T04:25:14;9.50;99.90
13960;DHT22;7052;51.050;3.716;2023-11-21T04:27:45;9.50;99.90
13960;DHT22;7052;51.050;3.716;2023-11-21T04:30:13;9.60;99.90
13960;DHT22;7052;51.050;3.716;2023-11-21T04:32:40;9.60;99.90
13960;DHT22;7052;51.050;3.716;2023-11-21T04:35:10;9.60;99.90
13960;DHT22;7052;51.050;3.716;2023-11-21T04:37:40;9.60;99.90
13960;DHT22;7052;51.050;3.716;2023-11-21T04:40:09;9.60;99.90
13960;DHT22;7052;51.050;3.716;2023-11-21T04:42:38;9.60;99.90
13960;DHT22;7052;51.050;3.716;2023-11-21T04:45:08;9.70;99.90
13960;DHT22;7052;51.050;3.716;2023-11-21T04:47:37;9.70;99.90
13960;DHT22;7052;51.050;3.716;2023-11-21T04:50:05;9.60;99.90
13960;DHT22;7052;51.050;3.716;2023-11-21T04:52:32;9.70;99.90
13960;DHT22;7052;51.050;3.716;2023-11-21T04:55:01;9.60;99.90
13960;DHT22;7052;51.050;3.716;2023-11-21T04:57:28;9.70;99.90
13960;DHT22;7052;51.050;3.716;2023-11-21T04:59:58;9.70;99.90
13960;DHT22;7052;51.050;3.716;2023-11-21T05:02:26;9.70;99.90
13960;DHT22;7052;51.050;3.716;2023-11-21T05:04:53;9.70;99.90
13960;DHT22;7052;51.050;3.716;2023-11-21T05:07:22;9.70;99.90
13960;DHT22;7052;51.050;3.716;2023-11-21T05:09:50;9.70;99.90
13960;DHT22;7052;51.050;3.716;2023-11-21T05:12:17;9.70;99.90
13960;DHT22;7052;51.050;3.716;2023-11-21T05:14:44;9.70;99.90
13960;DHT22;7052;51.050;3.716;2023-11-21T05:17:13;9.70;99.90
13960;DHT22;7052;51.050;3.716;2023-11-21T05:19:40;9.70;99.90
13960;DHT22;7052;51.050;3.716;2023-11-21T05:22:08;9.70;99.90
13960;DHT22;7052;51.050;3.716;2023-11-21T05:24:37;9.70;99.90
13960;DHT22;7052;51.050;3.716;2023-11-21T05:27:05;9.80;99.90
13960;DHT22;7052;51.050;3.716;2023-11-21T05:29:35;9.80;99.90
13960;DHT22;7052;51.050;3.716;2023-11-21T05:32:03;9.80;99.90
13960;DHT22;7052;51.050;3.716;2023-11-21T05:34:31;9.80;99.90
13960;DHT22;7052;51.050;3.716;2023-11-21T05:36:59;9.80;99.90
13960;DHT22;7052;51.050;3.716;2023-11-21T05:39:26;9.80;99.90
13960;DHT22;7052;51.050;3.716;2023-11-21T05:41:53;9.80;99.90
13960;DHT22;7052;51.050;3.716;2023-11-21T05:44:20;9.80;99.90
13960;DHT22;7052;51.050;3.716;2023-11-21T05:46:52;9.80;99.90
13960;DHT22;7052;51.050;3.716;2023-11-21T05:49:19;9.80;99.90
13960;DHT22;7052;51.050;3.716;2023-11-21T05:51:48;9.80;99.90
13960;DHT22;7052;51.050;3.716;2023-11-21T05:54:16;9.80;99.90
13960;DHT22;7052;51.050;3.716;2023-11-21T05:56:45;9.80;99.90
13960;DHT22;7052;51.050;3.716;2023-11-21T05:59:13;9.80;99.90
13960;DHT22;7052;51.050;3.716;2023-11-21T06:01:40;9.80;99.90
13960;DHT22;7052;51.050;3.716;2023-11-21T06:04:09;9.80;99.90
13960;DHT22;7052;51.050;3.716;2023-11-21T06:06:40;9.80;99.90
13960;DHT22;7052;51.050;3.716;2023-11-21T06:09:12;9.80;99.90
13960;DHT22;7052;51.050;3.716;2023-11-21T06:11:39;9.80;99.90
13960;DHT22;7052;51.050;3.716;2023-11-21T06:14:09;9.80;99.90
13960;DHT22;7052;51.050;3.716;2023-11-21T06:16:39;9.80;99.90
13960;DHT22;7052;51.050;3.716;2023-11-21T06:19:11;9.70;99.90
13960;DHT22;7052;51.050;3.716;2023-11-21T06:21:38;9.80;99.90
13960;DHT22;7052;51.050;3.716;2023-11-21T06:24:07;9.80;99.90
13960;DHT22;7052;51.050;3.716;2023-11-21T06:26:37;9.80;99.90
13960;DHT22;7052;51.050;3.716;2023-11-21T06:29:04;9.80;99.90
13960;DHT22;7052;51.050;3.716;2023-11-21T06:31:32;9.70;99.90
13960;DHT22;7052;51.050;3.716;2023-11-21T06:34:00;9.70;99.90
13960;DHT22;7052;51.050;3.716;2023-11-21T06:36:27;9.70;99.90
13960;DHT22;7052;51.050;3.716;2023-11-21T06:38:55;9.80;99.90
13960;DHT22;7052;51.050;3.716;2023-11-21T06:41:24;9.70;99.90
13960;DHT22;7052;51.050;3.716;2023-11-21T06:43:53;9.70;99.90
13960;DHT22;7052;51.050;3.716;2023-11-21T06:46:20;9.70;99.90
13960;DHT22;7052;51.050;3.716;2023-11-21T06:48:47;9.70;99.90
13960;DHT22;7052;51.050;3.716;2023-11-21T06:51:17;9.70;99.90
13960;DHT22;7052;51.050;3.716;2023-11-21T06:53:44;9.70;99.90
13960;DHT22;7052;51.050;3.716;2023-11-21T06:56:17;9.70;99.90
13960;DHT22;7052;51.050;3.716;2023-11-21T06:58:44;9.70;99.90
13960;DHT22;7052;51.050;3.716;2023-11-21T07:01:16;9.70;99.90
13960;DHT22;7052;51.050;3.716;2023-11-21T07:03:43;9.70;99.90
13960;DHT22;7052;51.050;3.716;2023-11-21T07:06:10;9.70;99.90
13960;DHT22;7052;51.050;3.716;2023-11-21T07:08:39;9.70;99.90
13960;DHT22;7052;51.050;3.716;2023-11-21T07:11:10;9.70;99.90
13960;DHT22;7052;51.050;3.716;2023-11-21T07:13:38;9.70;99.90
13960;DHT22;7052;51.050;3.716;2023-11-21T07:16:05;9.70;99.90
13960;DHT22;7052;51.050;3.716;2023-11-21T07:18:34;9.70;99.90
13960;DHT22;7052;51.050;3.716;2023-11-21T07:21:03;9.70;99.90
13960;DHT22;7052;51.050;3.716;2023-11-21T07:23:31;9.80;99.90
13960;DHT22;7052;51.050;3.716;2023-11-21T07:26:04;9.80;99.90
13960;DHT22;7052;51.050;3.716;2023-11-21T07:28:35;9.80;99.90
13960;DHT22;7052;51.050;3.716;2023-11-21T07:31:03;9.80;99.90
13960;DHT22;7052;51.050;3.716;2023-11-21T07:33:30;9.80;99.90
13960;DHT22;7052;51.050;3.716;2023-11-21T07:35:59;9.90;99.90
13960;DHT22;7052;51.050;3.716;2023-11-21T07:38:26;9.80;99.90
13960;DHT22;7052;51.050;3.716;2023-11-21T07:40:54;9.90;99.90
13960;DHT22;7052;51.050;3.716;2023-11-21T07:43:23;9.90;99.90
13960;DHT22;7052;51.050;3.716;2023-11-21T07:45:52;9.90;99.90
13960;DHT22;7052;51.050;3.716;2023-11-21T07:48:20;10.00;99.90
13960;DHT22;7052;51.050;3.716;2023-11-21T07:50:48;10.00;99.90
13960;DHT22;7052;51.050;3.716;2023-11-21T07:53:21;10.00;99.90
13960;DHT22;7052;51.050;3.716;2023-11-21T07:55:49;10.00;99.90
13960;DHT22;7052;51.050;3.716;2023-11-21T07:58:16;10.00;99.90
13960;DHT22;7052;51.050;3.716;2023-11-21T08:00:46;10.00;99.90
13960;DHT22;7052;51.050;3.716;2023-11-21T08:03:17;10.10;99.90
13960;DHT22;7052;51.050;3.716;2023-11-21T08:05:44;10.10;99.90
13960;DHT22;7052;51.050;3.716;2023-11-21T08:08:14;10.10;99.90
13960;DHT22;7052;51.050;3.716;2023-11-21T08:10:49;10.10;99.90
13960;DHT22;7052;51.050;3.716;2023-11-21T08:13:22;10.20;99.90
13960;DHT22;7052;51.050;3.716;2023-11-21T08:15:53;10.20;99.90
13960;DHT22;7052;51.050;3.716;2023-11-21T08:18:27;10.20;99.90
13960;DHT22;7052;51.050;3.716;2023-11-21T08:20:55;10.30;99.90
13960;DHT22;7052;51.050;3.716;2023-11-21T08:23:23;10.30;99.90
13960;DHT22;7052;51.050;3.716;2023-11-21T08:25:53;10.30;99.90
13960;DHT22;7052;51.050;3.716;2023-11-21T08:28:21;10.30;99.90
13960;DHT22;7052;51.050;3.716;2023-11-21T08:30:49;10.30;99.90
13960;DHT22;7052;51.050;3.716;2023-11-21T08:33:17;10.30;99.90
13960;DHT22;7052;51.050;3.716;2023-11-21T08:35:44;10.30;99.90
13960;DHT22;7052;51.050;3.716;2023-11-21T08:38:13;10.30;99.90
13960;DHT22;7052;51.050;3.716;2023-11-21T08:40:43;10.30;99.90
13960;DHT22;7052;51.050;3.716;2023-11-21T08:43:11;10.30;99.90
13960;DHT22;7052;51.050;3.716;2023-11-21T08:45:41;10.30;99.90
13960;DHT22;7052;51.050;3.716;2023-11-21T08:48:08;10.30;99.90
13960;DHT22;7052;51.050;3.716;2023-11-21T08:50:37;10.30;99.90
13960;DHT22;7052;51.050;3.716;2023-11-21T08:53:05;10.40;99.90
13960;DHT22;7052;51.050;3.716;2023-11-21T08:55:32;10.40;99.90
13960;DHT22;7052;51.050;3.716;2023-11-21T08:58:06;10.40;99.90
13960;DHT22;7052;51.050;3.716;2023-11-21T09:00:39;10.40;99.90
13960;DHT22;7052;51.050;3.716;2023-11-21T09:03:06;10.50;99.90
13960;DHT22;7052;51.050;3.716;2023-11-21T09:05:37;10.50;99.90
13960;DHT22;7052;51.050;3.716;2023-11-21T09:08:05;10.60;99.90
13960;DHT22;7052;51.050;3.716;2023-11-21T09:10:33;10.60;99.90
13960;DHT22;7052;51.050;3.716;2023-11-21T09:13:01;10.70;99.90
13960;DHT22;7052;51.050;3.716;2023-11-21T09:15:28;10.70;99.90
13960;DHT22;7052;51.050;3.716;2023-11-21T09:17:56;10.70;99.90
13960;DHT22;7052;51.050;3.716;2023-11-21T09:20:23;10.70;99.90
13960;DHT22;7052;51.050;3.716;2023-11-21T09:22:52;10.80;99.90
13960;DHT22;7052;51.050;3.716;2023-11-21T09:25:22;10.90;99.90
13960;DHT22;7052;51.050;3.716;2023-11-21T09:27:51;11.10;99.90
13960;DHT22;7052;51.050;3.716;2023-11-21T09:30:21;11.20;99.90
13960;DHT22;7052;51.050;3.716;2023-11-21T09:32:50;11.30;99.90
13960;DHT22;7052;51.050;3.716;2023-11-21T09:35:21;11.40;99.90
13960;DHT22;7052;51.050;3.716;2023-11-21T09:37:51;11.50;99.90
13960;DHT22;7052;51.050;3.716;2023-11-21T09:40:25;11.50;99.90
13960;DHT22;7052;51.050;3.716;2023-11-21T09:42:55;11.60;99.90
13960;DHT22;7052;51.050;3.716;2023-11-21T09:45:27;11.70;99.90
13960;DHT22;7052;51.050;3.716;2023-11-21T09:47:55;11.70;99.90
13960;DHT22;7052;51.050;3.716;2023-11-21T09:50:25;11.80;99.90
13960;DHT22;7052;51.050;3.716;2023-11-21T09:52:57;11.80;99.90
13960;DHT22;7052;51.050;3.716;2023-11-21T09:55:35;11.90;99.90
13960;DHT22;7052;51.050;3.716;2023-11-21T09:58:05;11.90;99.90
13960;DHT22;7052;51.050;3.716;2023-11-21T10:00:33;11.90;99.90
13960;DHT22;7052;51.050;3.716;2023-11-21T10:03:01;12.00;99.90
13960;DHT22;7052;51.050;3.716;2023-11-21T10:05:30;12.00;99.90
13960;DHT22;7052;51.050;3.716;2023-11-21T10:08:00;12.00;99.90
13960;DHT22;7052;51.050;3.716;2023-11-21T10:10:30;12.00;99.90
13960;DHT22;7052;51.050;3.716;2023-11-21T10:13:03;12.00;99.90
13960;DHT22;7052;51.050;3.716;2023-11-21T10:15:36;12.00;99.90
13960;DHT22;7052;51.050;3.716;2023-11-21T10:18:06;12.10;99.90
13960;DHT22;7052;51.050;3.716;2023-11-21T10:20:36;12.10;99.90
13960;DHT22;7052;51.050;3.716;2023-11-21T10:23:05;12.20;99.90
13960;DHT22;7052;51.050;3.716;2023-11-21T10:25:38;12.20;99.90
13960;DHT22;7052;51.050;3.716;2023-11-21T10:28:06;12.20;99.90
13960;DHT22;7052;51.050;3.716;2023-11-21T10:30:34;12.20;99.90
13960;DHT22;7052;51.050;3.716;2023-11-21T10:33:03;12.20;99.90
13960;DHT22;7052;51.050;3.716;2023-11-21T10:35:44;12.20;99.90
13960;DHT22;7052;51.050;3.716;2023-11-21T10:38:17;12.20;99.90
13960;DHT22;7052;51.050;3.716;2023-11-21T10:40:47;12.30;99.90
13960;DHT22;7052;51.050;3.716;2023-11-21T10:43:15;12.40;99.90
13960;DHT22;7052;51.050;3.716;2023-11-21T10:45:44;12.40;99.90
13960;DHT22;7052;51.050;3.716;2023-11-21T10:48:13;12.50;99.90
13960;DHT22;7052;51.050;3.716;2023-11-21T10:50:45;12.60;99.90
13960;DHT22;7052;51.050;3.716;2023-11-21T10:53:12;12.70;99.90
13960;DHT22;7052;51.050;3.716;2023-11-21T10:55:40;12.60;99.90
13960;DHT22;7052;51.050;3.716;2023-11-21T10:58:11;12.60;99.90
13960;DHT22;7052;51.050;3.716;2023-11-21T11:00:52;12.60;99.90
13960;DHT22;7052;51.050;3.716;2023-11-21T11:03:23;12.50;99.90
13960;DHT22;7052;51.050;3.716;2023-11-21T11:05:53;12.50;99.90
13960;DHT22;7052;51.050;3.716;2023-11-21T11:08:37;12.40;99.90
13960;DHT22;7052;51.050;3.716;2023-11-21T11:11:06;12.30;99.90
13960;DHT22;7052;51.050;3.716;2023-11-21T11:13:34;12.30;99.90
13960;DHT22;7052;51.050;3.716;2023-11-21T11:16:08;12.30;99.90
13960;DHT22;7052;51.050;3.716;2023-11-21T11:18:43;12.30;99.90
13960;DHT22;7052;51.050;3.716;2023-11-21T11:21:25;12.30;99.90
13960;DHT22;7052;51.050;3.716;2023-11-21T11:24:05;12.20;99.90
13960;DHT22;7052;51.050;3.716;2023-11-21T11:26:42;12.30;99.90
13960;DHT22;7052;51.050;3.716;2023-11-21T11:29:22;12.30;99.90
13960;DHT22;7052;51.050;3.716;2023-11-21T11:32:07;12.20;99.90
13960;DHT22;7052;51.050;3.716;2023-11-21T11:34:46;12.20;99.90
13960;DHT22;7052;51.050;3.716;2023-11-21T11:37:17;12.20;99.90
13960;DHT22;7052;51.050;3.716;2023-11-21T11:39:45;12.10;99.90
13960;DHT22;7052;51.050;3.716;2023-11-21T11:42:13;12.10;99.90
13960;DHT22;7052;51.050;3.716;2023-11-21T11:44:52;12.10;99.90
13960;DHT22;7052;51.050;3.716;2023-11-21T11:47:23;12.10;99.90
13960;DHT22;7052;51.050;3.716;2023-11-21T11:50:02;12.10;99.90
13960;DHT22;7052;51.050;3.716;2023-11-21T11:52:40;12.10;99.90
13960;DHT22;7052;51.050;3.716;2023-11-21T11:55:10;12.20;99.90
13960;DHT22;7052;51.050;3.716;2023-11-21T11:57:39;12.20;99.90
13960;DHT22;7052;51.050;3.716;2023-11-21T12:00:09;12.30;99.90
13960;DHT22;7052;51.050;3.716;2023-11-21T12:02:39;12.40;99.90
13960;DHT22;7052;51.050;3.716;2023-11-21T12:05:12;12.50;99.90
13960;DHT22;7052;51.050;3.716;2023-11-21T12:07:49;12.60;99.90
13960;DHT22;7052;51.050;3.716;2023-11-21T12:10:19;12.60;99.90
13960;DHT22;7052;51.050;3.716;2023-11-21T12:12:47;12.70;99.90
13960;DHT22;7052;51.050;3.716;2023-11-21T12:15:15;12.60;99.90
13960;DHT22;7052;51.050;3.716;2023-11-21T12:17:43;12.50;99.90
13960;DHT22;7052;51.050;3.716;2023-11-21T12:20:12;12.50;99.90
13960;DHT22;7052;51.050;3.716;2023-11-21T12:22:45;12.50;99.90
13960;DHT22;7052;51.050;3.716;2023-11-21T12:25:26;12.40;99.90
13960;DHT22;7052;51.050;3.716;2023-11-21T12:27:55;12.40;99.90
13960;DHT22;7052;51.050;3.716;2023-11-21T12:30:24;12.30;99.90
13960;DHT22;7052;51.050;3.716;2023-11-21T12:32:54;12.30;99.90
13960;DHT22;7052;51.050;3.716;2023-11-21T12:35:25;12.20;99.90
13960;DHT22;7052;51.050;3.716;2023-11-21T12:37:54;12.20;99.90
13960;DHT22;7052;51.050;3.716;2023-11-21T12:40:24;12.10;99.90
13960;DHT22;7052;51.050;3.716;2023-11-21T12:42:53;12.10;99.90
13960;DHT22;7052;51.050;3.716;2023-11-21T12:45:21;12.00;99.90
13960;DHT22;7052;51.050;3.716;2023-11-21T12:47:53;12.00;99.90
13960;DHT22;7052;51.050;3.716;2023-11-21T12:50:21;12.00;99.90
13960;DHT22;7052;51.050;3.716;2023-11-21T12:52:52;12.00;99.90
13960;DHT22;7052;51.050;3.716;2023-11-21T12:55:22;11.90;99.90
13960;DHT22;7052;51.050;3.716;2023-11-21T12:57:53;11.90;99.90
13960;DHT22;7052;51.050;3.716;2023-11-21T13:00:27;11.90;99.90
13960;DHT22;7052;51.050;3.716;2023-11-21T13:02:57;11.90;99.90
13960;DHT22;7052;51.050;3.716;2023-11-21T13:05:28;11.90;99.90
13960;DHT22;7052;51.050;3.716;2023-11-21T13:08:01;11.90;99.90
13960;DHT22;7052;51.050;3.716;2023-11-21T13:10:30;11.90;99.90
13960;DHT22;7052;51.050;3.716;2023-11-21T13:13:06;11.90;99.90
13960;DHT22;7052;51.050;3.716;2023-11-21T13:15:39;11.90;99.90
13960;DHT22;7052;51.050;3.716;2023-11-21T13:18:07;12.00;99.90
13960;DHT22;7052;51.050;3.716;2023-11-21T13:20:40;12.00;99.90
13960;DHT22;7052;51.050;3.716;2023-11-21T13:23:09;12.00;99.90
13960;DHT22;7052;51.050;3.716;2023-11-21T13:25:37;12.10;99.90
13960;DHT22;7052;51.050;3.716;2023-11-21T13:28:08;12.10;99.90
13960;DHT22;7052;51.050;3.716;2023-11-21T13:30:37;12.10;99.90
13960;DHT22;7052;51.050;3.716;2023-11-21T13:33:06;12.10;99.90
13960;DHT22;7052;51.050;3.716;2023-11-21T13:35:37;12.20;99.90
13960;DHT22;7052;51.050;3.716;2023-11-21T13:38:10;12.20;99.90
13960;DHT22;7052;51.050;3.716;2023-11-21T13:40:50;12.20;99.90
13960;DHT22;7052;51.050;3.716;2023-11-21T13:43:21;12.20;99.90
13960;DHT22;7052;51.050;3.716;2023-11-21T13:45:53;12.20;99.90
13960;DHT22;7052;51.050;3.716;2023-11-21T13:48:27;12.20;99.90
13960;DHT22;7052;51.050;3.716;2023-11-21T13:51:00;12.20;99.90
13960;DHT22;7052;51.050;3.716;2023-11-21T13:53:37;12.20;99.90
13960;DHT22;7052;51.050;3.716;2023-11-21T13:56:07;12.20;99.90
13960;DHT22;7052;51.050;3.716;2023-11-21T13:58:38;12.20;99.90
13960;DHT22;7052;51.050;3.716;2023-11-21T14:01:12;12.20;99.90
13960;DHT22;7052;51.050;3.716;2023-11-21T14:03:59;12.20;99.90
13960;DHT22;7052;51.050;3.716;2023-11-21T14:06:35;12.20;99.90
13960;DHT22;7052;51.050;3.716;2023-11-21T14:09:15;12.10;99.90
13960;DHT22;7052;51.050;3.716;2023-11-21T14:11:49;12.10;99.90
13960;DHT22;7052;51.050;3.716;2023-11-21T14:14:22;12.10;99.90
13960;DHT22;7052;51.050;3.716;2023-11-21T14:16:50;12.10;99.90
13960;DHT22;7052;51.050;3.716;2023-11-21T14:19:20;12.10;99.90
13960;DHT22;7052;51.050;3.716;2023-11-21T14:21:54;12.10;99.90
13960;DHT22;7052;51.050;3.716;2023-11-21T14:24:21;12.10;99.90
13960;DHT22;7052;51.050;3.716;2023-11-21T14:26:51;12.10;99.90
13960;DHT22;7052;51.050;3.716;2023-11-21T14:29:22;12.00;99.90
13960;DHT22;7052;51.050;3.716;2023-11-21T14:31:50;12.00;99.90
13960;DHT22;7052;51.050;3.716;2023-11-21T14:34:17;12.00;99.90
13960;DHT22;7052;51.050;3.716;2023-11-21T14:36:44;12.00;99.90
13960;DHT22;7052;51.050;3.716;2023-11-21T14:39:16;12.00;99.90
13960;DHT22;7052;51.050;3.716;2023-11-21T14:41:48;11.90;99.90
13960;DHT22;7052;51.050;3.716;2023-11-21T14:44:16;11.90;99.90
13960;DHT22;7052;51.050;3.716;2023-11-21T14:46:47;11.90;99.90
13960;DHT22;7052;51.050;3.716;2023-11-21T14:49:16;11.90;99.90
13960;DHT22;7052;51.050;3.716;2023-11-21T14:51:48;11.90;99.90
13960;DHT22;7052;51.050;3.716;2023-11-21T14:54:28;11.90;99.90
13960;DHT22;7052;51.050;3.716;2023-11-21T14:57:09;11.80;99.90
13960;DHT22;7052;51.050;3.716;2023-11-21T14:59:37;11.80;99.90
13960;DHT22;7052;51.050;3.716;2023-11-21T15:02:05;11.80;99.90
13960;DHT22;7052;51.050;3.716;2023-11-21T15:04:42;11.80;99.90
13960;DHT22;7052;51.050;3.716;2023-11-21T15:07:10;11.80;99.90
13960;DHT22;7052;51.050;3.716;2023-11-21T15:09:52;11.80;99.90
13960;DHT22;7052;51.050;3.716;2023-11-21T15:12:19;11.80;99.90
13960;DHT22;7052;51.050;3.716;2023-11-21T15:14:51;11.80;99.90
13960;DHT22;7052;51.050;3.716;2023-11-21T15:17:21;11.80;99.90
13960;DHT22;7052;51.050;3.716;2023-11-21T15:19:51;11.70;99.90
13960;DHT22;7052;51.050;3.716;2023-11-21T15:22:19;11.70;99.90
13960;DHT22;7052;51.050;3.716;2023-11-21T15:24:46;11.60;99.90
13960;DHT22;7052;51.050;3.716;2023-11-21T15:27:17;11.60;99.90
13960;DHT22;7052;51.050;3.716;2023-11-21T15:29:45;11.60;99.90
13960;DHT22;7052;51.050;3.716;2023-11-21T15:32:14;11.60;99.90
13960;DHT22;7052;51.050;3.716;2023-11-21T15:34:47;11.50;99.90
13960;DHT22;7052;51.050;3.716;2023-11-21T15:37:16;11.50;99.90
13960;DHT22;7052;51.050;3.716;2023-11-21T15:39:44;11.50;99.90
13960;DHT22;7052;51.050;3.716;2023-11-21T15:42:14;11.50;99.90
13960;DHT22;7052;51.050;3.716;2023-11-21T15:44:42;11.50;99.90
13960;DHT22;7052;51.050;3.716;2023-11-21T15:47:11;11.50;99.90
13960;DHT22;7052;51.050;3.716;2023-11-21T15:49:40;11.40;99.90
13960;DHT22;7052;51.050;3.716;2023-11-21T15:52:12;11.40;99.90
13960;DHT22;7052;51.050;3.716;2023-11-21T15:54:44;11.40;99.90
13960;DHT22;7052;51.050;3.716;2023-11-21T15:57:13;11.30;99.90
13960;DHT22;7052;51.050;3.716;2023-11-21T15:59:41;11.30;99.90
13960;DHT22;7052;51.050;3.716;2023-11-21T16:02:22;11.30;99.90
13960;DHT22;7052;51.050;3.716;2023-11-21T16:04:53;11.30;99.90
13960;DHT22;7052;51.050;3.716;2023-11-21T16:07:23;11.30;99.90
13960;DHT22;7052;51.050;3.716;2023-11-21T16:09:50;11.30;99.90
13960;DHT22;7052;51.050;3.716;2023-11-21T16:12:38;11.30;99.90
13960;DHT22;7052;51.050;3.716;2023-11-21T16:15:10;11.30;99.90
13960;DHT22;7052;51.050;3.716;2023-11-21T16:17:37;11.30;99.90
13960;DHT22;7052;51.050;3.716;2023-11-21T16:20:08;11.30;99.90